sensor_id;sensor_type;location;lat;lon;timestamp;P1;durP1;ratioP1;P2;durP2;ratioP2
53108;SDS011;39007;53.090;6.074;2023-08-07T00:01:21;5.68;;;2.20;;
53108;SDS011;39007;53.090;6.074;2023-08-07T00:03:47;5.22;;;2.03;;
53108;SDS011;39007;53.090;6.074;2023-08-07T00:06:13;11.10;;;2.40;;
53108;SDS011;39007;53.090;6.074;2023-08-07T00:08:39;9.30;;;2.20;;
53108;SDS011;39007;53.090;6.074;2023-08-07T00:11:06;5.10;;;2.10;;
53108;SDS011;39007;53.090;6.074;2023-08-07T00:13:32;7.00;;;2.10;;
53108;SDS011;39007;53.090;6.074;2023-08-07T00:15:58;5.28;;;2.08;;
53108;SDS011;39007;53.090;6.074;2023-08-07T00:18:24;6.90;;;2.15;;
53108;SDS011;39007;53.090;6.074;2023-08-07T00:20:50;7.38;;;2.10;;
53108;SDS011;39007;53.090;6.074;2023-08-07T00:23:16;4.95;;;2.10;;
53108;SDS011;39007;53.090;6.074;2023-08-07T00:25:42;7.72;;;2.25;;
53108;SDS011;39007;53.090;6.074;2023-08-07T00:28:08;8.93;;;2.75;;
53108;SDS011;39007;53.090;6.074;2023-08-07T00:30:34;7.30;;;2.30;;
53108;SDS011;39007;53.090;6.074;2023-08-07T00:33:00;8.55;;;2.58;;
53108;SDS011;39007;53.090;6.074;2023-08-07T00:35:26;14.23;;;3.25;;
53108;SDS011;39007;53.090;6.074;2023-08-07T00:37:52;14.90;;;3.33;;
53108;SDS011;39007;53.090;6.074;2023-08-07T00:40:18;11.38;;;2.75;;
53108;SDS011;39007;53.090;6.074;2023-08-07T00:42:44;14.98;;;3.05;;
53108;SDS011;39007;53.090;6.074;2023-08-07T00:45:10;11.32;;;3.35;;
53108;SDS011;39007;53.090;6.074;2023-08-07T00:47:36;14.05;;;2.88;;
53108;SDS011;39007;53.090;6.074;2023-08-07T00:50:03;19.80;;;3.35;;
53108;SDS011;39007;53.090;6.074;2023-08-07T00:52:30;15.98;;;3.92;;
53108;SDS011;39007;53.090;6.074;2023-08-07T00:54:56;13.02;;;2.78;;
53108;SDS011;39007;53.090;6.074;2023-08-07T00:57:22;12.05;;;3.08;;
53108;SDS011;39007;53.090;6.074;2023-08-07T00:59:49;18.63;;;3.67;;
53108;SDS011;39007;53.090;6.074;2023-08-07T01:02:16;14.02;;;3.30;;
53108;SDS011;39007;53.090;6.074;2023-08-07T01:04:42;12.48;;;2.78;;
53108;SDS011;39007;53.090;6.074;2023-08-07T01:07:08;13.80;;;3.13;;
53108;SDS011;39007;53.090;6.074;2023-08-07T01:09:35;14.10;;;3.03;;
53108;SDS011;39007;53.090;6.074;2023-08-07T01:12:15;19.25;;;3.10;;
53108;SDS011;39007;53.090;6.074;2023-08-07T01:14:52;16.42;;;3.22;;
53108;SDS011;39007;53.090;6.074;2023-08-07T01:17:22;16.27;;;3.40;;
53108;SDS011;39007;53.090;6.074;2023-08-07T01:19:52;12.77;;;2.80;;
53108;SDS011;39007;53.090;6.074;2023-08-07T01:22:18;13.85;;;3.13;;
53108;SDS011;39007;53.090;6.074;2023-08-07T01:24:48;14.82;;;3.40;;
53108;SDS011;39007;53.090;6.074;2023-08-07T01:32:35;15.85;;;3.58;;
53108;SDS011;39007;53.090;6.074;2023-08-07T01:35:05;16.35;;;3.10;;
53108;SDS011;39007;53.090;6.074;2023-08-07T01:37:33;15.02;;;3.28;;
53108;SDS011;39007;53.090;6.074;2023-08-07T01:40:00;13.95;;;2.70;;
53108;SDS011;39007;53.090;6.074;2023-08-07T01:42:29;13.85;;;3.33;;
53108;SDS011;39007;53.090;6.074;2023-08-07T01:44:55;17.67;;;3.33;;
53108;SDS011;39007;53.090;6.074;2023-08-07T01:47:21;15.85;;;3.85;;
53108;SDS011;39007;53.090;6.074;2023-08-07T01:49:47;13.23;;;3.28;;
53108;SDS011;39007;53.090;6.074;2023-08-07T01:52:13;14.35;;;2.97;;
53108;SDS011;39007;53.090;6.074;2023-08-07T01:54:39;12.35;;;3.17;;
53108;SDS011;39007;53.090;6.074;2023-08-07T01:57:05;11.77;;;3.42;;
53108;SDS011;39007;53.090;6.074;2023-08-07T01:59:32;14.88;;;3.20;;
53108;SDS011;39007;53.090;6.074;2023-08-07T02:01:58;16.55;;;3.28;;
53108;SDS011;39007;53.090;6.074;2023-08-07T02:04:24;15.18;;;3.15;;
53108;SDS011;39007;53.090;6.074;2023-08-07T02:06:50;14.68;;;3.30;;
53108;SDS011;39007;53.090;6.074;2023-08-07T02:09:16;17.25;;;3.22;;
53108;SDS011;39007;53.090;6.074;2023-08-07T02:11:42;14.13;;;2.85;;
53108;SDS011;39007;53.090;6.074;2023-08-07T02:14:09;15.50;;;2.90;;
53108;SDS011;39007;53.090;6.074;2023-08-07T02:16:35;15.10;;;3.30;;
53108;SDS011;39007;53.090;6.074;2023-08-07T02:19:02;19.33;;;3.28;;
53108;SDS011;39007;53.090;6.074;2023-08-07T02:21:28;13.75;;;2.75;;
53108;SDS011;39007;53.090;6.074;2023-08-07T02:23:54;17.83;;;3.28;;
53108;SDS011;39007;53.090;6.074;2023-08-07T02:26:20;12.98;;;3.00;;
53108;SDS011;39007;53.090;6.074;2023-08-07T02:28:46;16.80;;;2.83;;
53108;SDS011;39007;53.090;6.074;2023-08-07T02:31:12;15.43;;;3.10;;
53108;SDS011;39007;53.090;6.074;2023-08-07T02:33:38;14.65;;;3.20;;
53108;SDS011;39007;53.090;6.074;2023-08-07T02:36:06;11.20;;;3.00;;
53108;SDS011;39007;53.090;6.074;2023-08-07T02:38:32;17.60;;;3.30;;
53108;SDS011;39007;53.090;6.074;2023-08-07T02:40:58;16.08;;;2.90;;
53108;SDS011;39007;53.090;6.074;2023-08-07T02:43:24;14.98;;;3.00;;
53108;SDS011;39007;53.090;6.074;2023-08-07T02:45:51;11.98;;;2.83;;
53108;SDS011;39007;53.090;6.074;2023-08-07T02:48:17;14.38;;;3.10;;
53108;SDS011;39007;53.090;6.074;2023-08-07T02:50:44;12.73;;;3.17;;
53108;SDS011;39007;53.090;6.074;2023-08-07T02:53:10;14.32;;;3.22;;
53108;SDS011;39007;53.090;6.074;2023-08-07T02:55:37;15.13;;;3.10;;
53108;SDS011;39007;53.090;6.074;2023-08-07T02:58:03;15.68;;;2.90;;
53108;SDS011;39007;53.090;6.074;2023-08-07T03:00:29;14.23;;;2.88;;
53108;SDS011;39007;53.090;6.074;2023-08-07T03:02:55;15.30;;;3.10;;
53108;SDS011;39007;53.090;6.074;2023-08-07T03:05:21;16.60;;;3.75;;
53108;SDS011;39007;53.090;6.074;2023-08-07T03:07:47;12.80;;;3.15;;
53108;SDS011;39007;53.090;6.074;2023-08-07T03:10:13;18.23;;;3.72;;
53108;SDS011;39007;53.090;6.074;2023-08-07T03:12:39;12.80;;;3.47;;
53108;SDS011;39007;53.090;6.074;2023-08-07T03:15:05;15.07;;;3.50;;
53108;SDS011;39007;53.090;6.074;2023-08-07T03:17:31;16.50;;;3.42;;
53108;SDS011;39007;53.090;6.074;2023-08-07T03:19:58;11.18;;;3.05;;
53108;SDS011;39007;53.090;6.074;2023-08-07T03:22:24;17.02;;;3.42;;
53108;SDS011;39007;53.090;6.074;2023-08-07T03:24:50;12.00;;;3.05;;
53108;SDS011;39007;53.090;6.074;2023-08-07T03:27:16;9.18;;;2.90;;
53108;SDS011;39007;53.090;6.074;2023-08-07T03:29:42;12.35;;;3.00;;
53108;SDS011;39007;53.090;6.074;2023-08-07T03:32:08;12.60;;;3.33;;
53108;SDS011;39007;53.090;6.074;2023-08-07T03:34:34;13.73;;;3.40;;
53108;SDS011;39007;53.090;6.074;2023-08-07T03:37:01;11.40;;;3.72;;
53108;SDS011;39007;53.090;6.074;2023-08-07T03:39:27;16.90;;;3.80;;
53108;SDS011;39007;53.090;6.074;2023-08-07T03:41:53;13.13;;;3.40;;
53108;SDS011;39007;53.090;6.074;2023-08-07T03:44:19;17.73;;;4.00;;
53108;SDS011;39007;53.090;6.074;2023-08-07T03:46:45;18.20;;;4.63;;
53108;SDS011;39007;53.090;6.074;2023-08-07T03:49:11;14.88;;;4.15;;
53108;SDS011;39007;53.090;6.074;2023-08-07T03:51:37;20.35;;;4.32;;
53108;SDS011;39007;53.090;6.074;2023-08-07T03:54:03;19.48;;;4.43;;
53108;SDS011;39007;53.090;6.074;2023-08-07T03:56:29;20.85;;;4.38;;
53108;SDS011;39007;53.090;6.074;2023-08-07T03:59:01;14.90;;;4.15;;
53108;SDS011;39007;53.090;6.074;2023-08-07T04:01:28;19.95;;;4.35;;
53108;SDS011;39007;53.090;6.074;2023-08-07T04:03:54;15.68;;;4.55;;
53108;SDS011;39007;53.090;6.074;2023-08-07T04:06:20;16.90;;;4.10;;
53108;SDS011;39007;53.090;6.074;2023-08-07T04:08:46;17.02;;;4.25;;
53108;SDS011;39007;53.090;6.074;2023-08-07T04:11:13;20.63;;;4.13;;
53108;SDS011;39007;53.090;6.074;2023-08-07T04:13:39;17.33;;;3.70;;
53108;SDS011;39007;53.090;6.074;2023-08-07T04:16:05;16.10;;;4.22;;
53108;SDS011;39007;53.090;6.074;2023-08-07T04:18:31;19.15;;;4.18;;
53108;SDS011;39007;53.090;6.074;2023-08-07T04:20:58;16.25;;;3.80;;
53108;SDS011;39007;53.090;6.074;2023-08-07T04:23:24;14.02;;;3.65;;
53108;SDS011;39007;53.090;6.074;2023-08-07T04:25:51;14.25;;;3.97;;
53108;SDS011;39007;53.090;6.074;2023-08-07T04:28:18;14.65;;;3.78;;
53108;SDS011;39007;53.090;6.074;2023-08-07T04:30:44;17.00;;;3.75;;
53108;SDS011;39007;53.090;6.074;2023-08-07T04:33:10;18.60;;;4.20;;
53108;SDS011;39007;53.090;6.074;2023-08-07T04:35:37;16.67;;;4.20;;
53108;SDS011;39007;53.090;6.074;2023-08-07T04:38:03;17.35;;;4.78;;
53108;SDS011;39007;53.090;6.074;2023-08-07T04:40:30;20.63;;;3.88;;
53108;SDS011;39007;53.090;6.074;2023-08-07T04:42:56;16.27;;;4.05;;
53108;SDS011;39007;53.090;6.074;2023-08-07T04:45:22;11.07;;;3.80;;
53108;SDS011;39007;53.090;6.074;2023-08-07T04:47:48;14.68;;;4.30;;
53108;SDS011;39007;53.090;6.074;2023-08-07T04:50:14;18.88;;;4.18;;
53108;SDS011;39007;53.090;6.074;2023-08-07T04:52:40;17.25;;;3.97;;
53108;SDS011;39007;53.090;6.074;2023-08-07T04:55:06;19.13;;;4.10;;
53108;SDS011;39007;53.090;6.074;2023-08-07T04:57:33;21.92;;;4.50;;
53108;SDS011;39007;53.090;6.074;2023-08-07T04:59:59;19.33;;;4.45;;
53108;SDS011;39007;53.090;6.074;2023-08-07T05:02:25;22.10;;;4.63;;
53108;SDS011;39007;53.090;6.074;2023-08-07T05:04:51;20.75;;;4.53;;
53108;SDS011;39007;53.090;6.074;2023-08-07T05:07:17;19.65;;;4.80;;
53108;SDS011;39007;53.090;6.074;2023-08-07T05:09:43;21.00;;;4.35;;
53108;SDS011;39007;53.090;6.074;2023-08-07T05:12:09;15.80;;;4.70;;
53108;SDS011;39007;53.090;6.074;2023-08-07T05:14:35;16.65;;;4.00;;
53108;SDS011;39007;53.090;6.074;2023-08-07T05:17:01;21.25;;;4.47;;
53108;SDS011;39007;53.090;6.074;2023-08-07T05:19:27;19.45;;;4.65;;
53108;SDS011;39007;53.090;6.074;2023-08-07T05:21:53;18.08;;;4.97;;
53108;SDS011;39007;53.090;6.074;2023-08-07T05:24:19;21.40;;;4.68;;
53108;SDS011;39007;53.090;6.074;2023-08-07T05:26:45;15.88;;;4.30;;
53108;SDS011;39007;53.090;6.074;2023-08-07T05:29:12;19.15;;;4.45;;
53108;SDS011;39007;53.090;6.074;2023-08-07T05:31:38;20.23;;;4.75;;
53108;SDS011;39007;53.090;6.074;2023-08-07T05:34:04;17.73;;;4.43;;
53108;SDS011;39007;53.090;6.074;2023-08-07T05:36:30;17.00;;;4.22;;
53108;SDS011;39007;53.090;6.074;2023-08-07T05:38:58;21.35;;;4.07;;
53108;SDS011;39007;53.090;6.074;2023-08-07T05:41:24;20.98;;;5.30;;
53108;SDS011;39007;53.090;6.074;2023-08-07T05:43:50;19.60;;;4.70;;
53108;SDS011;39007;53.090;6.074;2023-08-07T05:46:16;25.15;;;4.72;;
53108;SDS011;39007;53.090;6.074;2023-08-07T05:48:42;19.38;;;4.55;;
53108;SDS011;39007;53.090;6.074;2023-08-07T05:51:08;17.25;;;4.72;;
53108;SDS011;39007;53.090;6.074;2023-08-07T05:53:34;16.35;;;4.43;;
53108;SDS011;39007;53.090;6.074;2023-08-07T05:56:01;15.32;;;4.20;;
53108;SDS011;39007;53.090;6.074;2023-08-07T05:58:28;14.43;;;4.63;;
53108;SDS011;39007;53.090;6.074;2023-08-07T06:00:54;16.75;;;4.38;;
53108;SDS011;39007;53.090;6.074;2023-08-07T06:03:20;14.07;;;3.83;;
53108;SDS011;39007;53.090;6.074;2023-08-07T06:05:46;13.38;;;4.25;;
53108;SDS011;39007;53.090;6.074;2023-08-07T06:08:12;16.48;;;4.15;;
53108;SDS011;39007;53.090;6.074;2023-08-07T06:10:38;17.70;;;4.50;;
53108;SDS011;39007;53.090;6.074;2023-08-07T06:13:04;15.73;;;4.38;;
53108;SDS011;39007;53.090;6.074;2023-08-07T06:15:31;22.45;;;5.07;;
53108;SDS011;39007;53.090;6.074;2023-08-07T06:17:58;16.77;;;4.53;;
53108;SDS011;39007;53.090;6.074;2023-08-07T06:20:24;15.85;;;4.20;;
53108;SDS011;39007;53.090;6.074;2023-08-07T06:22:50;23.20;;;4.50;;
53108;SDS011;39007;53.090;6.074;2023-08-07T06:25:17;23.00;;;4.97;;
53108;SDS011;39007;53.090;6.074;2023-08-07T06:27:44;25.88;;;4.93;;
53108;SDS011;39007;53.090;6.074;2023-08-07T06:30:11;12.88;;;4.00;;
53108;SDS011;39007;53.090;6.074;2023-08-07T06:32:38;16.40;;;4.15;;
53108;SDS011;39007;53.090;6.074;2023-08-07T06:35:04;12.48;;;3.58;;
53108;SDS011;39007;53.090;6.074;2023-08-07T06:37:30;12.98;;;3.25;;
53108;SDS011;39007;53.090;6.074;2023-08-07T06:39:57;13.45;;;3.25;;
53108;SDS011;39007;53.090;6.074;2023-08-07T06:42:23;13.43;;;3.60;;
53108;SDS011;39007;53.090;6.074;2023-08-07T06:44:49;15.27;;;3.67;;
53108;SDS011;39007;53.090;6.074;2023-08-07T06:47:15;14.73;;;3.13;;
53108;SDS011;39007;53.090;6.074;2023-08-07T06:49:41;10.88;;;3.13;;
53108;SDS011;39007;53.090;6.074;2023-08-07T06:52:07;16.60;;;3.38;;
53108;SDS011;39007;53.090;6.074;2023-08-07T06:54:33;12.07;;;3.30;;
53108;SDS011;39007;53.090;6.074;2023-08-07T06:56:59;13.88;;;3.47;;
53108;SDS011;39007;53.090;6.074;2023-08-07T06:59:25;15.25;;;3.30;;
53108;SDS011;39007;53.090;6.074;2023-08-07T07:01:51;10.75;;;3.10;;
53108;SDS011;39007;53.090;6.074;2023-08-07T07:04:18;13.73;;;3.60;;
53108;SDS011;39007;53.090;6.074;2023-08-07T07:06:44;9.70;;;2.97;;
53108;SDS011;39007;53.090;6.074;2023-08-07T07:09:10;12.00;;;3.28;;
53108;SDS011;39007;53.090;6.074;2023-08-07T07:11:41;9.43;;;2.92;;
53108;SDS011;39007;53.090;6.074;2023-08-07T07:14:07;14.90;;;3.15;;
53108;SDS011;39007;53.090;6.074;2023-08-07T07:16:33;12.23;;;3.13;;
53108;SDS011;39007;53.090;6.074;2023-08-07T07:19:01;12.20;;;2.80;;
53108;SDS011;39007;53.090;6.074;2023-08-07T07:21:27;12.82;;;3.20;;
53108;SDS011;39007;53.090;6.074;2023-08-07T07:23:53;13.00;;;3.13;;
53108;SDS011;39007;53.090;6.074;2023-08-07T07:26:19;14.35;;;3.70;;
53108;SDS011;39007;53.090;6.074;2023-08-07T07:28:45;13.80;;;3.47;;
53108;SDS011;39007;53.090;6.074;2023-08-07T07:31:11;13.88;;;3.83;;
53108;SDS011;39007;53.090;6.074;2023-08-07T07:33:37;11.32;;;3.70;;
53108;SDS011;39007;53.090;6.074;2023-08-07T07:36:04;11.95;;;3.80;;
53108;SDS011;39007;53.090;6.074;2023-08-07T07:38:31;12.43;;;3.90;;
53108;SDS011;39007;53.090;6.074;2023-08-07T07:40:58;14.48;;;4.00;;
53108;SDS011;39007;53.090;6.074;2023-08-07T07:43:24;16.52;;;4.10;;
53108;SDS011;39007;53.090;6.074;2023-08-07T07:45:50;14.95;;;3.85;;
53108;SDS011;39007;53.090;6.074;2023-08-07T07:48:16;12.32;;;4.13;;
53108;SDS011;39007;53.090;6.074;2023-08-07T07:50:42;9.43;;;3.50;;
53108;SDS011;39007;53.090;6.074;2023-08-07T07:53:08;14.65;;;3.78;;
53108;SDS011;39007;53.090;6.074;2023-08-07T07:55:34;14.65;;;4.47;;
53108;SDS011;39007;53.090;6.074;2023-08-07T07:58:02;10.85;;;3.40;;
53108;SDS011;39007;53.090;6.074;2023-08-07T08:00:29;12.23;;;3.50;;
53108;SDS011;39007;53.090;6.074;2023-08-07T08:02:55;11.43;;;3.40;;
53108;SDS011;39007;53.090;6.074;2023-08-07T08:05:21;12.73;;;3.53;;
53108;SDS011;39007;53.090;6.074;2023-08-07T08:07:47;11.65;;;3.47;;
53108;SDS011;39007;53.090;6.074;2023-08-07T08:10:13;11.30;;;3.20;;
53108;SDS011;39007;53.090;6.074;2023-08-07T08:12:39;13.27;;;3.80;;
53108;SDS011;39007;53.090;6.074;2023-08-07T08:15:05;14.43;;;3.72;;
53108;SDS011;39007;53.090;6.074;2023-08-07T08:17:32;13.57;;;3.58;;
53108;SDS011;39007;53.090;6.074;2023-08-07T08:19:58;14.57;;;3.97;;
53108;SDS011;39007;53.090;6.074;2023-08-07T08:22:24;10.75;;;3.45;;
53108;SDS011;39007;53.090;6.074;2023-08-07T08:24:50;16.67;;;3.78;;
53108;SDS011;39007;53.090;6.074;2023-08-07T08:27:16;15.50;;;3.80;;
53108;SDS011;39007;53.090;6.074;2023-08-07T08:29:42;14.52;;;3.38;;
53108;SDS011;39007;53.090;6.074;2023-08-07T08:32:10;13.70;;;3.50;;
53108;SDS011;39007;53.090;6.074;2023-08-07T08:34:36;15.43;;;3.75;;
53108;SDS011;39007;53.090;6.074;2023-08-07T08:37:02;12.88;;;3.38;;
53108;SDS011;39007;53.090;6.074;2023-08-07T08:39:30;15.05;;;3.40;;
53108;SDS011;39007;53.090;6.074;2023-08-07T08:41:57;8.90;;;3.05;;
53108;SDS011;39007;53.090;6.074;2023-08-07T08:44:23;8.35;;;2.97;;
53108;SDS011;39007;53.090;6.074;2023-08-07T08:46:50;10.60;;;3.58;;
53108;SDS011;39007;53.090;6.074;2023-08-07T08:49:20;16.15;;;3.30;;
53108;SDS011;39007;53.090;6.074;2023-08-07T08:51:48;15.98;;;3.30;;
53108;SDS011;39007;53.090;6.074;2023-08-07T08:54:15;13.30;;;3.60;;
53108;SDS011;39007;53.090;6.074;2023-08-07T08:56:42;11.50;;;3.35;;
53108;SDS011;39007;53.090;6.074;2023-08-07T08:59:08;10.60;;;3.00;;
53108;SDS011;39007;53.090;6.074;2023-08-07T09:01:34;10.35;;;2.97;;
53108;SDS011;39007;53.090;6.074;2023-08-07T09:04:01;10.68;;;3.03;;
53108;SDS011;39007;53.090;6.074;2023-08-07T09:06:30;14.98;;;3.47;;
53108;SDS011;39007;53.090;6.074;2023-08-07T09:08:57;15.65;;;7.85;;
53108;SDS011;39007;53.090;6.074;2023-08-07T09:11:24;10.88;;;2.85;;
53108;SDS011;39007;53.090;6.074;2023-08-07T09:13:50;8.52;;;3.30;;
53108;SDS011;39007;53.090;6.074;2023-08-07T09:16:17;8.65;;;2.70;;
53108;SDS011;39007;53.090;6.074;2023-08-07T09:18:43;9.43;;;2.90;;
53108;SDS011;39007;53.090;6.074;2023-08-07T09:21:09;13.23;;;3.13;;
53108;SDS011;39007;53.090;6.074;2023-08-07T09:23:35;12.60;;;3.00;;
53108;SDS011;39007;53.090;6.074;2023-08-07T09:26:02;18.92;;;3.30;;
53108;SDS011;39007;53.090;6.074;2023-08-07T09:28:29;12.13;;;3.38;;
53108;SDS011;39007;53.090;6.074;2023-08-07T09:30:55;14.27;;;3.70;;
53108;SDS011;39007;53.090;6.074;2023-08-07T09:33:28;12.45;;;3.20;;
53108;SDS011;39007;53.090;6.074;2023-08-07T09:36:01;11.70;;;2.70;;
53108;SDS011;39007;53.090;6.074;2023-08-07T09:38:28;14.45;;;3.55;;
53108;SDS011;39007;53.090;6.074;2023-08-07T09:40:57;10.10;;;2.80;;
53108;SDS011;39007;53.090;6.074;2023-08-07T09:43:24;9.30;;;2.58;;
53108;SDS011;39007;53.090;6.074;2023-08-07T09:45:50;10.95;;;2.70;;
53108;SDS011;39007;53.090;6.074;2023-08-07T09:48:22;12.05;;;3.10;;
53108;SDS011;39007;53.090;6.074;2023-08-07T09:50:50;9.90;;;2.63;;
53108;SDS011;39007;53.090;6.074;2023-08-07T09:53:16;9.93;;;3.35;;
53108;SDS011;39007;53.090;6.074;2023-08-07T09:55:42;14.23;;;3.20;;
53108;SDS011;39007;53.090;6.074;2023-08-07T09:58:09;13.27;;;2.83;;
53108;SDS011;39007;53.090;6.074;2023-08-07T10:00:42;10.30;;;3.13;;
53108;SDS011;39007;53.090;6.074;2023-08-07T10:03:08;9.25;;;2.95;;
53108;SDS011;39007;53.090;6.074;2023-08-07T10:05:34;12.50;;;3.10;;
53108;SDS011;39007;53.090;6.074;2023-08-07T10:08:00;11.68;;;2.88;;
53108;SDS011;39007;53.090;6.074;2023-08-07T10:10:27;13.85;;;3.00;;
53108;SDS011;39007;53.090;6.074;2023-08-07T10:12:53;11.32;;;3.03;;
53108;SDS011;39007;53.090;6.074;2023-08-07T10:15:20;12.27;;;2.88;;
53108;SDS011;39007;53.090;6.074;2023-08-07T10:17:46;11.48;;;3.28;;
53108;SDS011;39007;53.090;6.074;2023-08-07T10:20:13;10.95;;;3.33;;
53108;SDS011;39007;53.090;6.074;2023-08-07T10:22:39;14.32;;;2.90;;
53108;SDS011;39007;53.090;6.074;2023-08-07T10:25:06;10.18;;;2.85;;
53108;SDS011;39007;53.090;6.074;2023-08-07T10:27:34;9.93;;;2.90;;
53108;SDS011;39007;53.090;6.074;2023-08-07T10:30:02;12.50;;;2.90;;
53108;SDS011;39007;53.090;6.074;2023-08-07T10:32:30;10.40;;;2.85;;
53108;SDS011;39007;53.090;6.074;2023-08-07T10:34:56;12.80;;;3.00;;
53108;SDS011;39007;53.090;6.074;2023-08-07T10:37:42;10.02;;;2.85;;
53108;SDS011;39007;53.090;6.074;2023-08-07T10:40:09;13.63;;;4.70;;
53108;SDS011;39007;53.090;6.074;2023-08-07T10:42:50;7.50;;;2.60;;
53108;SDS011;39007;53.090;6.074;2023-08-07T10:45:19;7.97;;;2.45;;
53108;SDS011;39007;53.090;6.074;2023-08-07T10:48:06;7.15;;;2.30;;
53108;SDS011;39007;53.090;6.074;2023-08-07T10:50:36;7.57;;;2.33;;
53108;SDS011;39007;53.090;6.074;2023-08-07T10:53:12;11.48;;;2.63;;
53108;SDS011;39007;53.090;6.074;2023-08-07T10:55:44;11.40;;;2.50;;
53108;SDS011;39007;53.090;6.074;2023-08-07T10:58:24;8.73;;;2.63;;
53108;SDS011;39007;53.090;6.074;2023-08-07T11:00:51;7.80;;;2.30;;
53108;SDS011;39007;53.090;6.074;2023-08-07T11:03:35;6.47;;;2.20;;
53108;SDS011;39007;53.090;6.074;2023-08-07T11:06:02;10.00;;;2.38;;
53108;SDS011;39007;53.090;6.074;2023-08-07T11:08:28;10.73;;;2.33;;
53108;SDS011;39007;53.090;6.074;2023-08-07T11:10:54;6.57;;;2.10;;
53108;SDS011;39007;53.090;6.074;2023-08-07T11:13:21;8.00;;;2.42;;
53108;SDS011;39007;53.090;6.074;2023-08-07T11:15:47;14.43;;;2.67;;
53108;SDS011;39007;53.090;6.074;2023-08-07T11:18:13;8.55;;;2.60;;
53108;SDS011;39007;53.090;6.074;2023-08-07T11:20:41;26.67;;;2.95;;
53108;SDS011;39007;53.090;6.074;2023-08-07T11:23:07;8.27;;;2.60;;
53108;SDS011;39007;53.090;6.074;2023-08-07T11:25:33;12.23;;;2.80;;
53108;SDS011;39007;53.090;6.074;2023-08-07T11:27:59;11.70;;;2.72;;
53108;SDS011;39007;53.090;6.074;2023-08-07T11:30:25;11.30;;;3.03;;
53108;SDS011;39007;53.090;6.074;2023-08-07T11:32:52;11.18;;;2.95;;
53108;SDS011;39007;53.090;6.074;2023-08-07T11:35:18;9.07;;;2.60;;
53108;SDS011;39007;53.090;6.074;2023-08-07T11:37:45;10.77;;;2.70;;
53108;SDS011;39007;53.090;6.074;2023-08-07T11:40:11;13.45;;;3.20;;
53108;SDS011;39007;53.090;6.074;2023-08-07T11:42:37;14.73;;;3.05;;
53108;SDS011;39007;53.090;6.074;2023-08-07T11:45:03;10.05;;;3.00;;
53108;SDS011;39007;53.090;6.074;2023-08-07T11:47:30;8.68;;;3.00;;
53108;SDS011;39007;53.090;6.074;2023-08-07T11:49:56;9.13;;;2.78;;
53108;SDS011;39007;53.090;6.074;2023-08-07T11:52:22;8.32;;;2.70;;
53108;SDS011;39007;53.090;6.074;2023-08-07T11:54:49;10.13;;;2.90;;
53108;SDS011;39007;53.090;6.074;2023-08-07T11:57:16;11.23;;;2.63;;
53108;SDS011;39007;53.090;6.074;2023-08-07T11:59:42;10.05;;;3.05;;
53108;SDS011;39007;53.090;6.074;2023-08-07T12:02:09;8.40;;;2.90;;
53108;SDS011;39007;53.090;6.074;2023-08-07T12:04:36;10.23;;;2.72;;
53108;SDS011;39007;53.090;6.074;2023-08-07T12:07:03;12.98;;;3.60;;
53108;SDS011;39007;53.090;6.074;2023-08-07T12:09:29;7.45;;;2.53;;
53108;SDS011;39007;53.090;6.074;2023-08-07T12:11:59;9.65;;;2.60;;
53108;SDS011;39007;53.090;6.074;2023-08-07T12:14:31;11.10;;;2.80;;
53108;SDS011;39007;53.090;6.074;2023-08-07T12:16:57;7.50;;;2.88;;
53108;SDS011;39007;53.090;6.074;2023-08-07T12:19:23;6.32;;;2.20;;
53108;SDS011;39007;53.090;6.074;2023-08-07T12:21:49;7.65;;;2.53;;
53108;SDS011;39007;53.090;6.074;2023-08-07T12:24:15;9.05;;;2.85;;
53108;SDS011;39007;53.090;6.074;2023-08-07T12:26:43;9.00;;;2.75;;
53108;SDS011;39007;53.090;6.074;2023-08-07T12:29:09;20.10;;;2.90;;
53108;SDS011;39007;53.090;6.074;2023-08-07T12:31:35;9.02;;;3.15;;
53108;SDS011;39007;53.090;6.074;2023-08-07T12:34:01;9.55;;;3.17;;
53108;SDS011;39007;53.090;6.074;2023-08-07T12:36:27;9.23;;;3.13;;
53108;SDS011;39007;53.090;6.074;2023-08-07T12:38:53;7.70;;;3.38;;
53108;SDS011;39007;53.090;6.074;2023-08-07T12:41:19;11.50;;;3.40;;
53108;SDS011;39007;53.090;6.074;2023-08-07T12:43:45;7.15;;;2.63;;
53108;SDS011;39007;53.090;6.074;2023-08-07T12:46:11;10.45;;;2.80;;
53108;SDS011;39007;53.090;6.074;2023-08-07T12:48:37;8.90;;;2.90;;
53108;SDS011;39007;53.090;6.074;2023-08-07T12:51:04;9.25;;;2.70;;
53108;SDS011;39007;53.090;6.074;2023-08-07T12:53:30;6.45;;;2.50;;
53108;SDS011;39007;53.090;6.074;2023-08-07T12:55:56;13.18;;;3.50;;
53108;SDS011;39007;53.090;6.074;2023-08-07T12:58:22;9.10;;;3.03;;
53108;SDS011;39007;53.090;6.074;2023-08-07T13:00:51;13.20;;;2.83;;
53108;SDS011;39007;53.090;6.074;2023-08-07T13:03:17;9.13;;;2.80;;
53108;SDS011;39007;53.090;6.074;2023-08-07T13:05:43;7.47;;;2.60;;
53108;SDS011;39007;53.090;6.074;2023-08-07T13:08:09;8.52;;;2.60;;
53108;SDS011;39007;53.090;6.074;2023-08-07T13:10:35;8.65;;;2.60;;
53108;SDS011;39007;53.090;6.074;2023-08-07T13:13:01;9.73;;;2.78;;
53108;SDS011;39007;53.090;6.074;2023-08-07T13:15:29;9.90;;;2.90;;
53108;SDS011;39007;53.090;6.074;2023-08-07T13:17:55;10.63;;;3.20;;
53108;SDS011;39007;53.090;6.074;2023-08-07T13:20:21;8.35;;;2.75;;
53108;SDS011;39007;53.090;6.074;2023-08-07T13:22:47;11.00;;;3.03;;
53108;SDS011;39007;53.090;6.074;2023-08-07T13:25:13;9.32;;;3.20;;
53108;SDS011;39007;53.090;6.074;2023-08-07T13:27:40;10.40;;;3.10;;
53108;SDS011;39007;53.090;6.074;2023-08-07T13:30:06;11.90;;;3.10;;
53108;SDS011;39007;53.090;6.074;2023-08-07T13:32:33;10.85;;;3.00;;
53108;SDS011;39007;53.090;6.074;2023-08-07T13:35:00;12.48;;;2.55;;
53108;SDS011;39007;53.090;6.074;2023-08-07T13:37:27;9.98;;;2.80;;
53108;SDS011;39007;53.090;6.074;2023-08-07T13:39:53;16.48;;;2.95;;
53108;SDS011;39007;53.090;6.074;2023-08-07T13:42:23;11.75;;;3.00;;
53108;SDS011;39007;53.090;6.074;2023-08-07T13:44:49;10.20;;;2.88;;
53108;SDS011;39007;53.090;6.074;2023-08-07T13:47:15;9.98;;;2.55;;
53108;SDS011;39007;53.090;6.074;2023-08-07T13:49:43;7.53;;;2.90;;
53108;SDS011;39007;53.090;6.074;2023-08-07T13:52:09;8.52;;;2.72;;
53108;SDS011;39007;53.090;6.074;2023-08-07T13:54:35;8.52;;;2.90;;
53108;SDS011;39007;53.090;6.074;2023-08-07T13:57:01;8.45;;;2.60;;
53108;SDS011;39007;53.090;6.074;2023-08-07T13:59:27;10.20;;;2.85;;
53108;SDS011;39007;53.090;6.074;2023-08-07T14:01:53;11.23;;;2.88;;
53108;SDS011;39007;53.090;6.074;2023-08-07T14:04:21;11.88;;;2.80;;
53108;SDS011;39007;53.090;6.074;2023-08-07T14:06:47;11.90;;;2.97;;
53108;SDS011;39007;53.090;6.074;2023-08-07T14:09:13;9.48;;;2.95;;
53108;SDS011;39007;53.090;6.074;2023-08-07T14:11:39;7.70;;;3.13;;
53108;SDS011;39007;53.090;6.074;2023-08-07T14:14:05;7.95;;;2.70;;
53108;SDS011;39007;53.090;6.074;2023-08-07T14:16:31;9.43;;;2.83;;
53108;SDS011;39007;53.090;6.074;2023-08-07T14:18:57;11.35;;;2.50;;
53108;SDS011;39007;53.090;6.074;2023-08-07T14:21:23;9.43;;;2.30;;
53108;SDS011;39007;53.090;6.074;2023-08-07T14:23:50;7.55;;;2.55;;
53108;SDS011;39007;53.090;6.074;2023-08-07T14:26:16;8.35;;;2.55;;
53108;SDS011;39007;53.090;6.074;2023-08-07T14:28:43;9.43;;;2.45;;
53108;SDS011;39007;53.090;6.074;2023-08-07T14:31:10;5.88;;;2.22;;
53108;SDS011;39007;53.090;6.074;2023-08-07T14:33:36;8.77;;;2.63;;
53108;SDS011;39007;53.090;6.074;2023-08-07T14:36:03;7.07;;;2.50;;
53108;SDS011;39007;53.090;6.074;2023-08-07T14:38:29;9.55;;;2.20;;
53108;SDS011;39007;53.090;6.074;2023-08-07T14:40:56;6.85;;;2.28;;